Benson, United Kingdom
Current Conditions -  °F | °C
As of 4:50 AM on Saturday 25 Oct 2014 (Local Time) from EGUB Reporting Station
Clear Clear  
Wind Chill: 38°   Ceiling: Unl
Heat Index: 41°   Visibility: 6mi
Dew Point: 41°   Wind: 5mph
Humidity: 100%   Direction: 150°SSE
Pressure: 30"   Gusts: NA
Location:  51.62°N, 1.11°W
Report Text: EGUB 250350Z AUTO 15004KT 9999 // NCD 05/05 Q1016
Loading
Personal Weather Stations






























Interactive Weather Map
Tropical Storm Tracking
New forecast layout! Learn more

10-Day Weather Forecast

Advertisements
Track Severe Weather on mobile